Time;durP1;ratioP1;P1;durP2;ratioP2;P2;SDS_P1;SDS_P2;PMS_P1;PMS_P2;Temp;Humidity;BMP_temperature;BMP_pressure;BME280_temperature;BME280_humidity;BME280_pressure;Samples;Min_cycle;Max_cycle;Signal;HPM_P1;HPM_P2
2023/05/26 00:01:16;;;;;;;8.70;8.23;;;;;;;11.73;100.00;92893.81;5029286;28;20243;-75
2023/05/26 00:03:44;;;;;;;8.87;8.47;;;;;;;11.86;100.00;92892.38;5012999;28;20890;-75
2023/05/26 00:06:13;;;;;;;8.10;7.70;;;;;;;11.98;100.00;92896.16;5001401;28;20328;-75
2023/05/26 00:08:39;;;;;;;8.97;8.47;;;;;;;11.96;100.00;92892.25;5028932;28;20183;-75
2023/05/26 00:11:05;;;;;;;8.50;8.00;;;;;;;12.10;100.00;92901.78;5022625;28;20228;-75
2023/05/26 00:13:31;;;;;;;7.83;7.53;;;;;;;11.65;100.00;92881.34;5011230;28;20201;-75
2023/05/26 00:15:56;;;;;;;9.37;8.77;;;;;;;11.81;100.00;92895.06;5011199;28;20222;-75
2023/05/26 00:18:26;;;;;;;9.87;9.37;;;;;;;11.73;100.00;92890.41;5023025;28;20195;-74
2023/05/26 00:20:52;;;;;;;8.90;8.40;;;;;;;11.89;100.00;92886.59;5012131;28;20639;-76
2023/05/26 00:23:17;;;;;;;9.43;8.93;;;;;;;11.71;100.00;92869.78;5024720;28;20265;-76
2023/05/26 00:25:42;;;;;;;8.60;8.20;;;;;;;11.80;100.00;92893.50;5030471;28;20221;-75
2023/05/26 00:28:08;;;;;;;9.17;8.77;;;;;;;11.63;100.00;92888.69;5016413;28;20187;-75
2023/05/26 00:30:33;;;;;;;9.20;8.80;;;;;;;11.88;100.00;92898.09;4993782;28;20249;-75
2023/05/26 00:32:59;;;;;;;9.23;8.63;;;;;;;11.52;100.00;92881.22;5011011;28;20187;-75
2023/05/26 00:35:24;;;;;;;9.60;9.07;;;;;;;11.56;100.00;92876.97;5001354;28;20231;-76
2023/05/26 00:37:50;;;;;;;10.37;9.87;;;;;;;12.00;100.00;92885.41;5014907;28;20236;-73
2023/05/26 00:40:15;;;;;;;9.57;8.97;;;;;;;11.78;100.00;92879.91;5011018;28;20239;-74
2023/05/26 00:42:41;;;;;;;9.93;9.13;;;;;;;11.67;100.00;92883.69;4994014;28;20198;-73
2023/05/26 00:45:06;;;;;;;9.77;9.07;;;;;;;11.79;100.00;92881.47;5011021;28;20237;-73
2023/05/26 00:47:32;;;;;;;9.33;8.83;;;;;;;11.54;100.00;92861.56;5016899;28;20186;-74
2023/05/26 00:49:57;;;;;;;9.27;8.80;;;;;;;11.75;100.00;92864.78;5001364;28;20309;-74
2023/05/26 00:52:23;;;;;;;9.77;9.17;;;;;;;11.81;100.00;92885.38;5014616;28;20247;-73
2023/05/26 00:54:49;;;;;;;9.97;9.40;;;;;;;11.94;100.00;92870.84;4993191;28;20238;-72
2023/05/26 00:57:15;;;;;;;9.23;8.50;;;;;;;11.91;100.00;92887.06;5023666;28;20172;-72
2023/05/26 00:59:40;;;;;;;9.07;8.60;;;;;;;11.97;100.00;92893.81;5017333;28;20191;-72
2023/05/26 01:02:06;;;;;;;9.90;9.30;;;;;;;11.96;100.00;92894.88;5029739;28;20178;-72
2023/05/26 01:04:31;;;;;;;10.20;9.63;;;;;;;11.94;100.00;92894.38;5014471;28;20193;-72
2023/05/26 01:06:57;;;;;;;10.00;9.43;;;;;;;11.73;100.00;92874.72;5020647;28;20186;-73
2023/05/26 01:09:23;;;;;;;10.13;9.53;;;;;;;11.89;100.00;92891.81;5017140;28;20210;-73
2023/05/26 01:12:01;;;;;;;9.90;9.30;;;;;;;11.99;100.00;92897.72;5028409;28;20253;-72
2023/05/26 01:14:44;;;;;;;11.13;10.07;;;;;;;11.93;100.00;92879.72;5028926;28;20186;-72
2023/05/26 01:17:18;;;;;;;10.77;10.07;;;;;;;11.91;100.00;92895.72;5028184;28;20201;-72
2023/05/26 01:20:06;;;;;;;10.13;9.43;;;;;;;12.04;100.00;92894.25;5011293;28;20237;-72
2023/05/26 01:23:15;;;;;;;10.27;9.77;;;;;;;11.94;100.00;92899.63;5015835;28;20187;-73
2023/05/26 01:25:58;;;;;;;9.77;9.10;;;;;;;11.94;100.00;92897.00;5009370;28;20226;-73
2023/05/26 01:28:29;;;;;;;9.93;9.33;;;;;;;11.93;100.00;92898.03;4998462;28;20266;-73
2023/05/26 01:30:55;;;;;;;11.10;10.40;;;;;;;11.63;100.00;92866.97;5005266;28;20271;-72
2023/05/26 01:33:20;;;;;;;13.10;12.20;;;;;;;11.50;100.00;92876.25;5001468;28;20735;-72
2023/05/26 01:35:46;;;;;;;11.47;10.47;;;;;;;11.77;100.00;92899.25;5009972;28;20219;-72
2023/05/26 01:38:12;;;;;;;12.17;11.17;;;;;;;11.55;100.00;92885.88;5010358;28;20205;-72
2023/05/26 01:40:43;;;;;;;11.63;10.77;;;;;;;11.67;100.00;92894.16;5010215;28;20221;-73
2023/05/26 01:43:33;;;;;;;11.03;10.33;;;;;;;11.75;100.00;92896.16;5011675;28;20214;-73
2023/05/26 01:46:10;;;;;;;10.20;9.60;;;;;;;11.52;100.00;92884.59;5000811;28;20255;-72
2023/05/26 01:48:37;;;;;;;11.80;11.03;;;;;;;11.68;100.00;92901.72;4996249;28;20182;-72
2023/05/26 01:51:06;;;;;;;12.23;11.33;;;;;;;11.85;100.00;92888.19;5015116;28;20242;-73
2023/05/26 01:53:33;;;;;;;12.53;11.53;;;;;;;11.73;100.00;92885.19;5012804;28;20203;-73
2023/05/26 01:56:00;;;;;;;11.37;10.53;;;;;;;11.75;100.00;92896.91;5010946;28;20236;-73
2023/05/26 01:58:26;;;;;;;11.40;10.40;;;;;;;11.97;100.00;92904.28;5010365;28;20203;-72
2023/05/26 02:00:52;;;;;;;11.70;10.87;;;;;;;11.83;100.00;92893.69;5009626;28;20225;-72
2023/05/26 02:03:18;;;;;;;10.63;10.03;;;;;;;11.72;100.00;92888.88;5005857;28;20192;-73
2023/05/26 02:05:44;;;;;;;11.47;10.43;;;;;;;11.80;100.00;92903.97;5009260;28;20280;-71
2023/05/26 02:08:10;;;;;;;11.77;11.03;;;;;;;11.84;100.00;92899.72;5011744;28;20191;-72
2023/05/26 02:10:36;;;;;;;10.53;9.83;;;;;;;11.69;100.00;92892.03;5010130;28;20239;-73
2023/05/26 02:13:02;;;;;;;12.10;11.00;;;;;;;11.67;100.00;92881.06;5012155;28;20278;-71
2023/05/26 02:15:28;;;;;;;13.37;12.27;;;;;;;11.62;100.00;92896.78;5010749;28;20214;-72
2023/05/26 02:17:54;;;;;;;13.57;12.47;;;;;;;11.61;100.00;92888.16;5011578;28;20246;-73
2023/05/26 02:20:20;;;;;;;12.97;11.33;;;;;;;12.15;100.00;92906.16;5015166;28;20238;-73
2023/05/26 02:22:46;;;;;;;12.33;11.53;;;;;;;11.89;100.00;92897.81;5017351;28;20222;-73
2023/05/26 02:25:11;;;;;;;12.63;11.67;;;;;;;11.91;100.00;92894.91;5010327;28;20232;-72
2023/05/26 02:27:37;;;;;;;11.53;10.43;;;;;;;11.96;100.00;92905.34;5011188;28;20397;-72
2023/05/26 02:30:03;;;;;;;12.40;11.40;;;;;;;11.68;100.00;92903.53;5018684;28;20245;-73
2023/05/26 02:32:29;;;;;;;12.97;12.00;;;;;;;11.68;100.00;92891.25;5016381;28;20191;-73
2023/05/26 02:34:54;;;;;;;13.37;12.23;;;;;;;11.82;100.00;92896.59;5012691;28;20237;-74
2023/05/26 02:37:20;;;;;;;13.40;12.40;;;;;;;11.98;100.00;92904.00;5016386;28;20188;-73
2023/05/26 02:39:45;;;;;;;13.13;12.13;;;;;;;12.11;100.00;92897.31;5014075;28;20228;-73
2023/05/26 02:42:11;;;;;;;13.03;11.93;;;;;;;12.18;100.00;92903.78;5013159;28;20203;-73
2023/05/26 02:44:36;;;;;;;13.70;12.70;;;;;;;12.12;100.00;92896.25;5015092;28;20183;-73
2023/05/26 02:47:02;;;;;;;12.53;11.63;;;;;;;12.03;100.00;92884.84;5013466;28;20180;-73
2023/05/26 02:49:27;;;;;;;12.70;11.70;;;;;;;12.15;100.00;92895.69;5014621;28;20263;-73
2023/05/26 02:51:53;;;;;;;13.20;12.20;;;;;;;12.23;100.00;92895.06;5018581;28;20192;-72
2023/05/26 02:54:18;;;;;;;11.90;10.97;;;;;;;12.23;100.00;92895.06;5010147;28;20770;-73
2023/05/26 02:56:44;;;;;;;13.30;12.20;;;;;;;12.03;100.00;92874.41;5012905;28;20816;-72
2023/05/26 02:59:09;;;;;;;13.50;12.50;;;;;;;12.37;100.00;92903.78;5012627;28;20237;-72
2023/05/26 03:01:35;;;;;;;13.03;12.03;;;;;;;12.18;100.00;92887.28;5012572;28;20223;-73
2023/05/26 03:04:01;;;;;;;13.40;12.37;;;;;;;12.20;100.00;92895.63;4997422;28;20226;-73
2023/05/26 03:06:27;;;;;;;12.47;11.37;;;;;;;12.45;100.00;92905.78;5023523;28;20210;-73
2023/05/26 03:08:52;;;;;;;14.07;12.87;;;;;;;12.61;100.00;92910.53;5003492;28;20184;-73
2023/05/26 03:11:18;;;;;;;13.33;12.03;;;;;;;12.27;100.00;92914.38;5011909;28;20250;-72
2023/05/26 03:13:43;;;;;;;13.63;12.57;;;;;;;12.58;100.00;92907.69;5012517;28;20222;-72
2023/05/26 03:16:10;;;;;;;14.43;13.13;;;;;;;12.94;100.00;92929.72;5012487;28;20234;-73
2023/05/26 03:18:36;;;;;;;14.43;13.20;;;;;;;12.66;100.00;92934.03;5014461;28;20181;-73
2023/05/26 03:21:04;;;;;;;13.77;12.67;;;;;;;12.47;100.00;92924.59;5009051;28;20287;-73
2023/05/26 03:23:29;;;;;;;12.33;11.23;;;;;;;12.62;100.00;92927.03;5003767;28;20176;-73
2023/05/26 03:25:55;;;;;;;14.20;12.90;;;;;;;12.60;100.00;92939.63;5012152;28;20235;-73
2023/05/26 03:28:20;;;;;;;13.77;12.70;;;;;;;12.47;100.00;92920.16;5013629;28;20266;-72
2023/05/26 03:30:45;;;;;;;14.20;13.20;;;;;;;12.70;100.00;92949.97;5012475;28;20889;-73
2023/05/26 03:33:11;;;;;;;12.50;11.53;;;;;;;12.48;100.00;92921.69;5016876;28;20201;-72
2023/05/26 03:35:36;;;;;;;12.27;11.37;;;;;;;12.91;100.00;92949.41;5026699;28;20227;-73
2023/05/26 03:38:01;;;;;;;11.87;10.97;;;;;;;12.87;100.00;92934.53;5019669;28;20179;-73
2023/05/26 03:40:27;;;;;;;10.37;9.57;;;;;;;12.87;100.00;92910.97;5022476;28;20250;-73
2023/05/26 03:42:52;;;;;;;11.43;10.63;;;;;;;13.08;100.00;92941.06;5021765;28;20194;-73
2023/05/26 03:45:18;;;;;;;12.60;11.60;;;;;;;13.12;100.00;92939.41;5006723;28;20259;-73
2023/05/26 03:47:43;;;;;;;13.60;12.50;;;;;;;13.31;100.00;92940.19;5022624;28;20218;-68
2023/05/26 03:50:09;;;;;;;12.07;11.27;;;;;;;13.43;100.00;92942.38;5016922;28;20238;-66
2023/05/26 03:52:35;;;;;;;11.57;10.77;;;;;;;13.17;100.00;92934.09;5015263;28;20273;-68
2023/05/26 03:55:01;;;;;;;11.83;11.00;;;;;;;13.72;100.00;92954.19;5020605;28;20237;-68
2023/05/26 03:57:26;;;;;;;12.93;11.73;;;;;;;14.20;100.00;92952.78;5011948;28;20188;-68
2023/05/26 03:59:51;;;;;;;11.43;10.70;;;;;;;14.63;100.00;92952.50;5012082;28;20294;-69
2023/05/26 04:02:19;;;;;;;13.07;11.83;;;;;;;14.74;100.00;92959.13;4996295;28;20206;-71
2023/05/26 04:04:44;;;;;;;11.73;10.83;;;;;;;13.71;100.00;92950.00;5021334;28;20261;-69
2023/05/26 04:07:10;;;;;;;12.57;11.37;;;;;;;13.34;100.00;92944.09;5008456;28;20188;-68
2023/05/26 04:09:35;;;;;;;12.03;11.23;;;;;;;13.83;100.00;92931.16;5010799;28;20255;-70
2023/05/26 04:12:01;;;;;;;12.40;11.27;;;;;;;14.59;100.00;92952.31;5010864;28;20230;-71
2023/05/26 04:14:27;;;;;;;12.70;11.77;;;;;;;14.87;100.00;92939.88;5011664;28;20211;-72
2023/05/26 04:16:52;;;;;;;12.77;11.77;;;;;;;14.67;100.00;92932.44;5012237;28;20200;-72
2023/05/26 04:19:18;;;;;;;13.03;12.10;;;;;;;15.75;100.00;92953.88;5014830;28;20186;-71
2023/05/26 04:21:43;;;;;;;12.17;11.33;;;;;;;16.21;100.00;92948.22;5014952;28;20290;-71
2023/05/26 04:24:09;;;;;;;10.80;10.10;;;;;;;16.89;100.00;92948.44;5012492;28;20202;-71
2023/05/26 04:26:34;;;;;;;11.27;10.43;;;;;;;18.00;95.52;92960.84;5012210;28;20239;-71
2023/05/26 04:29:00;;;;;;;11.47;10.67;;;;;;;17.82;94.13;92949.53;5012561;28;20186;-70
2023/05/26 04:31:29;;;;;;;11.37;10.23;;;;;;;17.96;94.81;92952.00;5014823;28;20226;-71
2023/05/26 04:33:58;;;;;;;11.60;10.90;;;;;;;17.63;95.64;92948.31;5012773;28;20203;-71
2023/05/26 04:36:24;;;;;;;12.17;11.17;;;;;;;17.26;99.26;92937.28;5010139;28;20231;-70
2023/05/26 04:38:51;;;;;;;11.73;10.83;;;;;;;17.37;98.46;92941.16;5012947;28;20202;-77
2023/05/26 04:41:17;;;;;;;12.37;11.47;;;;;;;17.68;100.00;92964.00;5009122;28;20244;-77
2023/05/26 04:43:43;;;;;;;10.80;10.10;;;;;;;17.70;100.00;92953.91;5009243;28;20211;-75
2023/05/26 04:46:10;;;;;;;11.67;10.77;;;;;;;17.81;99.95;92957.75;5018196;28;20287;-76
2023/05/26 04:48:39;;;;;;;10.80;9.80;;;;;;;17.44;100.00;92970.56;5011074;28;20184;-76
2023/05/26 04:51:08;;;;;;;12.13;11.23;;;;;;;17.34;98.75;92964.75;5006541;28;20231;-76
2023/05/26 04:53:35;;;;;;;12.93;11.63;;;;;;;17.34;98.91;92968.19;5012020;28;20187;-76
2023/05/26 04:56:01;;;;;;;14.07;12.60;;;;;;;17.92;94.41;92945.78;5010105;28;20263;-76
2023/05/26 04:58:27;;;;;;;12.23;11.27;;;;;;;18.31;91.26;92971.94;5009768;28;20179;-76
2023/05/26 05:00:54;;;;;;;13.93;12.73;;;;;;;17.50;94.53;92961.38;5008955;28;20215;-75
2023/05/26 05:03:20;;;;;;;14.57;13.37;;;;;;;16.74;100.00;92956.81;5009470;28;20175;-76
2023/05/26 05:05:46;;;;;;;12.97;11.77;;;;;;;17.21;100.00;92960.44;5000767;28;20246;-76
2023/05/26 05:08:12;;;;;;;13.47;12.43;;;;;;;17.15;98.02;92938.69;5016191;28;20181;-75
2023/05/26 05:10:37;;;;;;;11.70;10.73;;;;;;;17.31;98.92;92950.34;5010253;28;20235;-75
2023/05/26 05:13:04;;;;;;;13.73;12.50;;;;;;;17.54;97.90;92937.78;5011109;28;20211;-76
2023/05/26 05:15:29;;;;;;;12.50;11.40;;;;;;;17.79;95.52;92955.44;5010127;28;20227;-75
2023/05/26 05:17:54;;;;;;;12.37;11.00;;;;;;;17.63;97.12;92950.97;4991105;28;20191;-76
2023/05/26 05:20:20;;;;;;;12.97;11.77;;;;;;;17.77;97.18;92957.63;5014628;28;20254;-76
2023/05/26 05:22:46;;;;;;;13.40;11.57;;;;;;;18.16;92.54;92952.09;5022627;28;20207;-75
2023/05/26 05:25:11;;;;;;;12.40;11.07;;;;;;;18.74;88.42;92969.94;5012684;28;20223;-75
2023/05/26 05:27:36;;;;;;;11.60;10.60;;;;;;;19.12;85.96;92965.31;5012423;28;20198;-75
2023/05/26 05:30:03;;;;;;;12.73;10.87;;;;;;;18.98;85.90;92975.38;5009342;28;20243;-75
2023/05/26 05:32:28;;;;;;;10.70;10.00;;;;;;;19.96;82.08;92968.41;5010827;28;20220;-76
2023/05/26 05:34:55;;;;;;;9.43;8.80;;;;;;;23.17;67.75;92977.34;4995025;28;20222;-75
2023/05/26 05:37:20;;;;;;;10.55;9.90;;;;;;;21.86;72.20;92963.75;5011190;28;20844;-76
2023/05/26 05:39:45;;;;;;;8.70;8.20;;;;;;;20.35;73.45;92933.38;5012013;28;20226;-76
2023/05/26 05:42:11;;;;;;;9.02;8.60;;;;;;;21.34;72.77;92969.06;5010681;28;20215;-75
2023/05/26 05:44:36;;;;;;;9.27;8.52;;;;;;;24.85;59.49;92977.25;5010508;28;20189;-76
2023/05/26 05:47:02;;;;;;;8.73;8.05;;;;;;;26.53;52.59;92986.78;5008389;28;20192;-76
2023/05/26 05:49:27;;;;;;;9.57;8.75;;;;;;;27.77;50.17;92991.22;5010235;28;20191;-76
2023/05/26 05:51:52;;;;;;;9.40;8.45;;;;;;;28.76;48.26;93001.22;5010397;28;20190;-76
2023/05/26 05:54:18;;;;;;;10.02;9.10;;;;;;;31.07;41.14;92999.16;5011016;28;20172;-76
2023/05/26 05:56:44;;;;;;;10.73;9.68;;;;;;;28.49;42.92;92994.63;5010837;28;21006;-76
2023/05/26 05:59:10;;;;;;;10.80;9.90;;;;;;;26.93;50.09;92985.25;5011336;28;20188;-76
2023/05/26 06:01:36;;;;;;;10.23;9.48;;;;;;;31.60;38.91;92996.06;5009507;28;20230;-76
2023/05/26 06:04:02;;;;;;;9.13;8.32;;;;;;;31.42;37.08;92996.22;5013832;28;20182;-76
2023/05/26 06:06:28;;;;;;;9.63;8.70;;;;;;;31.66;37.34;92999.84;5020048;28;20245;-76
2023/05/26 06:08:53;;;;;;;8.82;8.13;;;;;;;31.07;37.30;92993.75;5013776;28;20214;-76
2023/05/26 06:11:19;;;;;;;9.25;8.57;;;;;;;31.48;35.95;92983.81;5024220;28;20241;-76
2023/05/26 06:13:44;;;;;;;9.00;8.30;;;;;;;32.20;36.07;92991.59;5015369;28;20206;-76
2023/05/26 06:16:10;;;;;;;9.23;8.57;;;;;;;33.75;33.51;93006.41;5024422;28;20286;-76
2023/05/26 06:18:35;;;;;;;8.77;8.15;;;;;;;33.53;33.01;92999.03;5026462;28;20203;-76
2023/05/26 06:21:00;;;;;;;9.25;8.32;;;;;;;33.00;33.24;93004.50;4996152;28;20234;-76
2023/05/26 06:23:26;;;;;;;9.20;8.52;;;;;;;30.49;37.83;92993.72;5013546;28;20167;-75
2023/05/26 06:25:52;;;;;;;8.75;8.25;;;;;;;30.88;37.52;92989.66;5013441;28;20228;-75
2023/05/26 06:28:17;;;;;;;9.55;8.82;;;;;;;31.16;36.95;92989.44;5017232;28;20712;-76
2023/05/26 06:30:43;;;;;;;9.13;8.40;;;;;;;29.18;41.52;92995.91;5013495;28;20223;-76
2023/05/26 06:33:08;;;;;;;10.32;9.40;;;;;;;33.04;33.27;93013.31;5017057;28;20187;-76
2023/05/26 06:35:33;;;;;;;11.65;9.65;;;;;;;32.46;33.90;92987.44;5013816;28;20672;-76
2023/05/26 06:37:59;;;;;;;14.45;9.98;;;;;;;31.97;36.29;93010.34;5013976;28;20207;-76
2023/05/26 06:40:25;;;;;;;12.50;11.18;;;;;;;29.48;39.70;92996.25;5013724;28;20227;-76
2023/05/26 06:42:50;;;;;;;14.05;12.68;;;;;;;25.85;49.83;92983.69;5014733;28;20196;-76
2023/05/26 06:45:16;;;;;;;18.70;13.38;;;;;;;22.65;64.78;92976.84;5013727;28;20235;-75
2023/05/26 06:47:41;;;;;;;14.02;12.55;;;;;;;21.96;66.91;92973.91;5013286;28;20200;-75
2023/05/26 06:50:07;;;;;;;12.65;11.35;;;;;;;21.78;67.35;92973.41;5013223;28;20237;-75
2023/05/26 06:52:33;;;;;;;13.18;11.95;;;;;;;21.41;68.27;92981.78;5013619;28;20198;-75
2023/05/26 06:54:58;;;;;;;13.73;12.27;;;;;;;19.69;76.79;92973.50;5012720;28;20243;-76
2023/05/26 06:57:23;;;;;;;12.70;11.32;;;;;;;19.66;76.94;92974.91;5013631;28;20190;-76
2023/05/26 06:59:49;;;;;;;12.32;11.43;;;;;;;20.30;74.43;92983.19;5013069;28;20229;-75
2023/05/26 07:02:14;;;;;;;13.00;11.70;;;;;;;20.36;71.09;92960.66;5015689;28;20184;-75
2023/05/26 07:04:41;;;;;;;11.95;10.95;;;;;;;20.18;71.74;92978.66;4995815;28;20223;-75
2023/05/26 07:07:07;;;;;;;13.30;12.10;;;;;;;19.48;77.43;92957.63;5005599;28;20219;-75
2023/05/26 07:09:32;;;;;;;12.20;11.25;;;;;;;19.77;75.10;92970.75;5012333;28;20250;-71
2023/05/26 07:11:58;;;;;;;12.32;11.23;;;;;;;19.70;75.45;92970.53;5007023;28;20258;-68
2023/05/26 07:14:23;;;;;;;12.80;11.82;;;;;;;19.74;75.71;92968.75;5011626;28;20191;-71
2023/05/26 07:16:48;;;;;;;13.23;11.97;;;;;;;19.98;76.81;92960.91;4994166;28;20784;-71
2023/05/26 07:19:14;;;;;;;11.83;11.03;;;;;;;19.85;75.96;92972.56;5011505;28;20205;-70
2023/05/26 07:21:39;;;;;;;11.50;10.50;;;;;;;19.58;79.66;92964.41;5013288;28;20236;-69
2023/05/26 07:24:05;;;;;;;11.90;11.00;;;;;;;19.74;76.20;92976.72;5013998;28;20189;-69
2023/05/26 07:26:30;;;;;;;11.60;10.63;;;;;;;19.91;75.66;92976.56;5010849;28;20222;-67
2023/05/26 07:28:56;;;;;;;12.57;11.33;;;;;;;20.08;77.77;92965.78;5010784;28;20200;-67
2023/05/26 07:31:21;;;;;;;16.10;12.47;;;;;;;19.81;77.34;92971.69;5005279;28;20229;-68
2023/05/26 07:33:47;;;;;;;14.70;11.83;;;;;;;19.25;84.77;92976.75;5010811;28;20190;-67
2023/05/26 07:36:13;;;;;;;12.03;11.03;;;;;;;19.84;79.02;92980.84;5013209;28;20293;-68
2023/05/26 07:38:38;;;;;;;12.37;11.47;;;;;;;20.11;76.36;92981.03;5006872;28;20199;-68
2023/05/26 07:41:04;;;;;;;13.30;12.03;;;;;;;19.54;76.78;92979.38;5008475;28;20231;-68
2023/05/26 07:43:29;;;;;;;14.33;13.00;;;;;;;20.13;75.69;92984.16;5004923;28;20194;-68
2023/05/26 07:45:55;;;;;;;14.90;13.30;;;;;;;19.85;77.39;92972.56;5009318;28;20245;-68
2023/05/26 07:48:21;;;;;;;14.33;12.93;;;;;;;19.98;77.29;92979.47;5011433;28;20213;-68
2023/05/26 07:50:46;;;;;;;15.13;13.77;;;;;;;20.26;76.67;92969.06;5010337;28;20226;-69
2023/05/26 07:53:12;;;;;;;17.50;15.70;;;;;;;20.14;79.71;92980.41;5010251;28;20194;-68
2023/05/26 07:55:37;;;;;;;15.30;13.90;;;;;;;20.60;76.49;92982.72;5006188;28;20235;-69
2023/05/26 07:58:02;;;;;;;16.30;14.73;;;;;;;20.54;78.80;92978.72;5010810;28;20223;-68
2023/05/26 08:00:28;;;;;;;17.67;15.97;;;;;;;20.19;78.78;92974.91;5008527;28;20256;-69
2023/05/26 08:02:53;;;;;;;21.00;15.73;;;;;;;20.93;76.91;92957.94;5010469;28;20251;-67
2023/05/26 08:05:19;;;;;;;17.15;15.35;;;;;;;21.37;74.37;92967.66;5008520;28;20233;-67
2023/05/26 08:07:45;;;;;;;16.97;15.37;;;;;;;21.22;72.82;92978.94;5017966;28;20194;-67
2023/05/26 08:10:10;;;;;;;15.88;14.48;;;;;;;21.19;71.00;92976.97;5009852;28;20232;-68
2023/05/26 08:12:36;;;;;;;20.37;15.23;;;;;;;20.98;72.47;92974.44;5003576;28;20440;-68
2023/05/26 08:15:13;;;;;;;16.98;15.27;;;;;;;21.42;71.77;92964.72;5009382;28;20246;-70
2023/05/26 08:17:38;;;;;;;18.00;16.13;;;;;;;20.65;73.50;92958.59;5010682;28;20225;-69
2023/05/26 08:20:04;;;;;;;17.88;16.05;;;;;;;20.13;79.83;92973.56;5009441;28;20249;-69
2023/05/26 08:22:30;;;;;;;17.70;15.90;;;;;;;20.66;78.64;92970.00;5009924;28;20212;-70
2023/05/26 08:24:57;;;;;;;17.73;15.37;;;;;;;20.80;76.48;92964.34;5009306;28;20238;-67
2023/05/26 08:27:22;;;;;;;16.67;15.05;;;;;;;20.60;76.91;92966.78;5008330;28;20186;-69
2023/05/26 08:29:47;;;;;;;18.75;14.90;;;;;;;20.59;77.73;92959.16;5008898;28;20241;-69
2023/05/26 08:32:13;;;;;;;18.13;14.43;;;;;;;20.69;74.85;92966.66;5010108;28;20200;-68
2023/05/26 08:34:38;;;;;;;16.00;14.35;;;;;;;20.54;76.34;92960.16;5009684;28;20200;-68
2023/05/26 08:37:03;;;;;;;17.40;15.70;;;;;;;20.80;77.17;92956.38;5008799;28;20226;-69
2023/05/26 08:39:29;;;;;;;15.85;14.43;;;;;;;20.75;75.68;92948.66;5016028;28;20226;-69
2023/05/26 08:42:00;;;;;;;17.07;15.07;;;;;;;21.04;75.56;92945.78;5009426;28;20198;-67
2023/05/26 08:44:26;;;;;;;16.80;15.20;;;;;;;20.68;73.39;92946.56;5008819;28;20207;-69
2023/05/26 08:46:55;;;;;;;17.70;13.98;;;;;;;20.94;74.52;92946.97;5009460;28;20201;-68
2023/05/26 08:49:21;;;;;;;17.48;14.57;;;;;;;20.76;73.56;92950.19;5009101;28;20214;-69
2023/05/26 08:51:55;;;;;;;15.85;14.45;;;;;;;20.83;72.70;92950.41;5008315;28;20226;-69
2023/05/26 08:54:21;;;;;;;15.18;13.77;;;;;;;20.96;74.85;92954.63;5008487;28;20190;-69
2023/05/26 08:56:48;;;;;;;15.00;13.50;;;;;;;21.74;68.66;92963.75;5008945;28;20237;-68
2023/05/26 08:59:15;;;;;;;14.70;13.18;;;;;;;22.01;65.49;92960.34;5009249;28;20200;-68
2023/05/26 09:01:41;;;;;;;13.77;12.30;;;;;;;22.61;64.12;92957.38;5006713;28;20231;-69
2023/05/26 09:04:06;;;;;;;12.65;11.48;;;;;;;22.92;62.38;92962.66;5008510;28;20195;-69
2023/05/26 09:06:34;;;;;;;12.27;11.27;;;;;;;22.87;60.19;92954.94;5008675;28;20224;-69
2023/05/26 09:08:59;;;;;;;12.52;11.30;;;;;;;22.73;61.54;92965.25;5009115;28;20214;-68
2023/05/26 09:11:27;;;;;;;12.18;11.13;;;;;;;22.80;64.55;92943.34;5005894;28;20239;-68
2023/05/26 09:13:56;;;;;;;11.45;10.57;;;;;;;23.40;61.29;92956.94;5009211;28;20194;-68
2023/05/26 09:16:27;;;;;;;10.93;10.13;;;;;;;23.04;62.33;92938.59;5003008;28;20229;-67
2023/05/26 09:19:00;;;;;;;11.23;10.35;;;;;;;22.96;60.80;92947.53;5009124;28;20207;-67
2023/05/26 09:21:27;;;;;;;14.00;10.85;;;;;;;22.52;59.91;92940.81;5008579;28;20973;-66
2023/05/26 09:23:55;;;;;;;12.73;11.63;;;;;;;22.23;63.00;92936.63;5009046;28;20213;-68
2023/05/26 09:26:27;;;;;;;12.45;11.40;;;;;;;22.56;61.69;92935.53;5008507;28;20226;-68
2023/05/26 09:28:52;;;;;;;14.05;12.65;;;;;;;22.40;62.49;92946.16;5008893;28;20270;-67
2023/05/26 09:31:18;;;;;;;11.65;10.85;;;;;;;22.35;63.64;92932.34;5003873;28;20226;-68
2023/05/26 09:33:47;;;;;;;12.73;11.75;;;;;;;21.65;66.32;92947.19;5009172;28;20190;-68
2023/05/26 09:36:15;;;;;;;13.15;11.80;;;;;;;22.23;65.21;92951.81;5008656;28;20219;-67
2023/05/26 09:38:42;;;;;;;11.15;10.13;;;;;;;22.89;64.63;92939.41;5016533;28;20193;-68
2023/05/26 09:41:08;;;;;;;11.05;10.30;;;;;;;23.54;60.37;92957.22;5022010;28;20225;-69
2023/05/26 09:43:33;;;;;;;10.95;10.18;;;;;;;23.73;56.36;92959.91;5013524;28;20254;-69
2023/05/26 09:45:59;;;;;;;11.27;10.48;;;;;;;23.43;59.02;92953.56;5012372;28;20249;-69
2023/05/26 09:48:25;;;;;;;26.75;15.02;;;;;;;23.72;58.70;92954.94;5013505;28;20194;-68
2023/05/26 09:50:51;;;;;;;10.88;10.00;;;;;;;23.73;56.88;92956.47;5012131;28;20230;-70
2023/05/26 09:53:17;;;;;;;12.07;11.23;;;;;;;23.25;55.48;92936.41;5006109;28;20195;-71
2023/05/26 09:55:44;;;;;;;11.43;10.57;;;;;;;23.71;56.07;92940.81;5012311;28;20225;-69
2023/05/26 09:58:11;;;;;;;10.63;9.93;;;;;;;23.99;56.95;92947.84;5008693;28;20222;-69
2023/05/26 10:00:40;;;;;;;11.05;10.27;;;;;;;24.13;56.38;92956.88;5010297;28;20280;-70
2023/05/26 10:03:12;;;;;;;11.52;10.63;;;;;;;23.30;55.92;92946.78;5013070;28;20759;-70
2023/05/26 10:05:40;;;;;;;12.30;11.20;;;;;;;22.59;61.90;92948.94;4994192;28;20244;-69
2023/05/26 10:08:06;;;;;;;12.27;11.30;;;;;;;22.98;60.38;92944.53;5012367;28;20198;-71
2023/05/26 10:10:33;;;;;;;11.07;10.27;;;;;;;22.61;58.48;92945.94;5011732;28;20237;-70
2023/05/26 10:12:59;;;;;;;12.43;11.45;;;;;;;22.30;60.87;92936.03;5012928;28;20187;-69
2023/05/26 10:15:25;;;;;;;13.10;12.00;;;;;;;21.87;64.14;92928.06;5013129;28;20234;-70
2023/05/26 10:17:51;;;;;;;12.35;11.40;;;;;;;22.04;63.49;92914.44;5013206;28;20226;-69
2023/05/26 10:20:17;;;;;;;13.60;11.05;;;;;;;21.97;66.15;92928.34;5012897;28;20229;-69
2023/05/26 10:22:55;;;;;;;12.77;11.77;;;;;;;21.58;69.83;92931.03;5011510;28;20188;-68
2023/05/26 10:25:27;;;;;;;13.60;12.30;;;;;;;21.21;72.70;92925.06;5011511;28;20225;-69
2023/05/26 10:28:09;;;;;;;13.75;12.48;;;;;;;20.53;78.17;92928.63;5016841;28;20223;-69
2023/05/26 10:30:39;;;;;;;14.07;12.68;;;;;;;20.10;83.76;92931.78;4998865;28;20258;-69
2023/05/26 10:33:12;;;;;;;15.82;12.88;;;;;;;20.06;81.88;92936.16;5023130;28;20194;-68
2023/05/26 10:35:53;;;;;;;13.52;12.48;;;;;;;19.62;80.54;92930.84;5013370;28;20236;-69
2023/05/26 10:38:18;;;;;;;12.10;11.10;;;;;;;19.03;84.89;92907.19;5005910;28;20233;-69
2023/05/26 10:40:50;;;;;;;11.70;10.60;;;;;;;19.05;83.70;92939.38;5023844;28;20186;-69
2023/05/26 10:43:21;;;;;;;12.10;11.10;;;;;;;19.15;86.22;92941.66;5014519;28;20252;-69
2023/05/26 10:45:57;;;;;;;13.57;12.17;;;;;;;18.11;98.81;92939.06;5023582;28;20186;-69
2023/05/26 10:48:35;;;;;;;13.40;12.20;;;;;;;17.78;96.63;92938.03;5005690;28;20309;-68
2023/05/26 10:51:25;;;;;;;12.80;11.83;;;;;;;17.52;100.00;92934.69;5002243;28;20212;-70
2023/05/26 10:53:52;;;;;;;12.60;11.80;;;;;;;17.44;99.69;92938.09;5014496;28;20260;-69
2023/05/26 10:56:18;;;;;;;11.73;10.93;;;;;;;17.52;100.00;92924.13;5011261;28;20180;-69
2023/05/26 10:58:49;;;;;;;13.73;12.60;;;;;;;17.47;100.00;92929.56;5010029;28;20249;-70
2023/05/26 11:01:28;;;;;;;12.63;11.60;;;;;;;17.49;100.00;92936.06;5013081;28;20185;-69
2023/05/26 11:04:09;;;;;;;12.63;11.83;;;;;;;17.68;100.00;92932.31;5012227;28;20219;-69
2023/05/26 11:06:51;;;;;;;13.73;12.23;;;;;;;17.62;100.00;92929.06;5012774;28;20197;-69
2023/05/26 11:09:21;;;;;;;12.47;11.53;;;;;;;17.63;100.00;92926.09;5002020;28;20294;-69
2023/05/26 11:11:55;;;;;;;13.27;12.13;;;;;;;17.84;100.00;92923.56;5005091;28;20237;-69
2023/05/26 11:14:33;;;;;;;12.23;11.23;;;;;;;17.41;100.00;92921.00;4995701;28;20243;-69
2023/05/26 11:17:00;;;;;;;14.77;11.70;;;;;;;17.45;100.00;92918.53;5012659;28;20240;-68